Paddy — WDF2429 — position and weather

sailwx.info

Track history (hours):
 
Tides and Currents Weather Stations Pressure Air Temp Water Temp Dewpoint Dewpoint Depression Visibility Wind Speed Wind Dir Waves Ship Positions

Paddy

Owner: Enterprise Marine Services, LLC, San Antonio, TX. More information available from US FCC via Universal Licensing System and Coast Guard Vessel Documentation Center.

Last reported at 2018-Jun-03 06:50 UTC. Time now 2018-Jun-21 17:30 UTC.
Position N 27°52' W 097°03'.
Warning: this ship's position is 18 days out of date.

Length 21 m; draft 2.7 m.

Type: . MMSI: 367003770.

Date/timePositionNaut miles runAvg speedWind from/ knotsBaromVisibWave heightAir tempDewpointWater temp
2018-Jun-03 06:50N 27°52' W 097°03'0 0.0
2018-Jun-03 06:24N 27°52' W 097°03'0 0.0
2018-Jun-03 03:33N 27°52' W 097°03'0 0.0
2018-Jun-03 03:27N 27°52' W 097°03'0 0.0
2018-Jun-03 02:58N 27°52' W 097°03'0 0.0
2018-Jun-03 02:30N 27°52' W 097°03'0 0.0
2018-Jun-03 02:00N 27°52' W 097°03'0 0.0
2018-Jun-03 01:30N 27°52' W 097°03'141 3.2
2018-Jun-01 04:46N 29°17' W 094°54'1 5.0
2018-Jun-01 04:30N 29°18' W 094°53'3 5.1
2018-Jun-01 03:59N 29°20' W 094°51'3 1.0
2018-Jun-01 01:01N 29°23' W 094°52'0 0.7
2018-Jun-01 00:38N 29°23' W 094°52'0 3.7
2018-Jun-01 00:30N 29°23' W 094°51'3 5.8
2018-Jun-01 00:00N 29°22' W 094°48'24 5.7
2018-May-31 19:47N 29°34' W 094°25'2 4.9
2018-May-31 19:27N 29°36' W 094°24'2 3.4
2018-May-31 18:54N 29°36' W 094°22'2 5.4
2018-May-31 18:30N 29°37' W 094°20'3 5.4
2018-May-31 18:00N 29°38' W 094°18'3 5.3
2018-May-31 17:30N 29°40' W 094°15'3 5.4
2018-May-31 17:00N 29°41' W 094°12'3 5.3
2018-May-31 16:30N 29°42' W 094°09'3 5.4
2018-May-31 16:00N 29°43' W 094°07'3 5.6
2018-May-31 15:30N 29°45' W 094°04'3 5.7
2018-May-31 15:00N 29°47' W 094°02'3 5.7
2018-May-31 14:30N 29°49' W 093°59'3 5.1
2018-May-31 14:00N 29°50' W 093°57'3 5.2
2018-May-31 13:30N 29°53' W 093°56'3 5.4
2018-May-31 13:00N 29°55' W 093°53'3 5.1
2018-May-31 12:30N 29°57' W 093°52'2 4.1
2018-May-31 12:00N 29°59' W 093°52'1 1.5
2018-May-31 11:30N 29°59' W 093°53'0 0.5
2018-May-31 11:00N 29°59' W 093°53'0 0.0
2018-May-31 10:30N 29°59' W 093°53'0 0.0
2018-May-31 10:00N 29°59' W 093°53'0 0.0
2018-May-31 09:30N 29°59' W 093°53'1 1.3
2018-May-31 09:00N 29°59' W 093°54'2 4.6
2018-May-31 08:30N 29°58' W 093°52'0 0.0
2018-May-31 07:59N 29°58' W 093°52'0 0.0
2018-May-31 07:29N 29°58' W 093°52'0 0.0
2018-May-31 06:59N 29°58' W 093°52'0 0.0
2018-May-31 06:29N 29°58' W 093°52'0 0.0
2018-May-31 05:56N 29°58' W 093°52'0 0.0
2018-May-31 05:29N 29°58' W 093°52'0 0.0
2018-May-31 04:59N 29°58' W 093°52'0 0.0
2018-May-31 04:29N 29°58' W 093°52'0 0.0
2018-May-31 03:58N 29°58' W 093°52'0 0.0
2018-May-31 03:28N 29°58' W 093°52'0 0.0
2018-May-31 02:58N 29°58' W 093°52'0 0.0
2018-May-31 02:28N 29°58' W 093°52'0 0.0
2018-May-31 02:00N 29°58' W 093°52'0 0.0
2018-May-31 01:31N 29°58' W 093°52'0 0.0
2018-May-31 01:00N 29°58' W 093°52'0 0.0
2018-May-31 00:30N 29°58' W 093°52'0 0.0
2018-May-31 00:00N 29°58' W 093°52'0 0.0
2018-May-30 23:30N 29°58' W 093°52'0 0.0
2018-May-30 23:00N 29°58' W 093°52'0 0.0
2018-May-30 22:30N 29°58' W 093°52'0 0.0
2018-May-30 22:00N 29°58' W 093°52'0 0.0
2018-May-30 21:30N 29°58' W 093°52'0 0.0
2018-May-30 20:55N 29°58' W 093°52'0 0.0
2018-May-30 20:25N 29°58' W 093°52'0 0.0
2018-May-30 19:58N 29°58' W 093°52'0 0.0
2018-May-30 19:28N 29°58' W 093°52'0 0.0
2018-May-30 18:58N 29°58' W 093°52'0 0.0
2018-May-30 18:28N 29°58' W 093°52'0 0.0
2018-May-30 17:55N 29°58' W 093°52'0 0.0
2018-May-30 17:29N 29°58' W 093°52'0 0.0
2018-May-30 16:59N 29°58' W 093°52'0 0.0
2018-May-30 16:30N 29°58' W 093°52'0 0.5
2018-May-30 16:00N 29°58' W 093°51'3 5.7
2018-May-30 15:30N 29°59' W 093°55'0 0.9
2018-May-30 14:58N 29°60' W 093°55'0 0.0
2018-May-30 14:28N 29°60' W 093°55'0 0.0
2018-May-30 13:58N 29°60' W 093°55'0 0.0
2018-May-30 13:28N 29°60' W 093°55'0 0.0
2018-May-30 12:58N 29°60' W 093°55'0 0.0
2018-May-30 12:28N 29°60' W 093°55'0 0.0
2018-May-30 11:58N 29°60' W 093°55'0 0.0
2018-May-30 11:28N 29°60' W 093°55'0 0.0
2018-May-30 10:58N 29°60' W 093°55'0 0.0
2018-May-30 10:28N 29°60' W 093°55'0 0.0
2018-May-30 09:58N 29°60' W 093°55'0 0.0
2018-May-30 09:28N 29°60' W 093°55'0 0.0
2018-May-30 08:58N 29°60' W 093°55'0 0.0
2018-May-30 08:28N 29°60' W 093°55'0 0.0
2018-May-30 07:58N 29°60' W 093°55'0 0.0
2018-May-30 07:28N 29°60' W 093°55'0 0.0
2018-May-30 06:55N 29°60' W 093°55'0 0.0
2018-May-30 06:28N 29°60' W 093°55'0 0.0
2018-May-30 05:58N 29°60' W 093°55'0 0.0
2018-May-30 05:28N 29°60' W 093°55'0 0.0
2018-May-30 04:58N 29°60' W 093°55'0 0.0
2018-May-30 04:28N 29°60' W 093°55'1 2.0
2018-May-30 04:00N 29°59' W 093°54'2 5.0
2018-May-30 03:30N 29°58' W 093°51'0 0.3
2018-May-30 03:00N 29°58' W 093°52'0 0.0
2018-May-30 02:30N 29°58' W 093°52'0 0.0
2018-May-30 02:00N 29°58' W 093°52'0 0.0
2018-May-30 01:30N 29°58' W 093°52'0 0.0
2018-May-30 01:00N 29°58' W 093°52'0 0.0
2018-May-30 00:30N 29°58' W 093°52'0 0.0
2018-May-30 00:00N 29°58' W 093°52'3 5.8
2018-May-29 23:31N 29°59' W 093°55'1 1.0
2018-May-29 23:01N 29°59' W 093°54'2 4.5
2018-May-29 22:29N 29°58' W 093°52'0 0.0
2018-May-29 21:58N 29°58' W 093°52'0 0.0
2018-May-29 21:30N 29°58' W 093°52'2 3.8
2018-May-29 21:00N 29°59' W 093°53'1 2.8
2018-May-29 20:30N 29°60' W 093°55'0 0.0
2018-May-29 20:00N 29°60' W 093°55'0 0.0
2018-May-29 19:30N 29°60' W 093°55'0 0.1
2018-May-29 19:01N 29°60' W 093°55'1 1.8
2018-May-29 18:30N 29°59' W 093°56'2 4.4
2018-May-29 18:00N 30°01' W 093°58'3 5.2
2018-May-29 17:30N 30°01' W 094°01'2 3.3
2018-May-29 17:00N 30°02' W 094°02'0 0.0
2018-May-29 16:30N 30°02' W 094°02'0 0.0
2018-May-29 16:00N 30°02' W 094°02'0 0.0
2018-May-29 15:30N 30°02' W 094°02'0 0.0
2018-May-29 15:00N 30°02' W 094°02'0 0.0
2018-May-29 14:30N 30°02' W 094°02'0 0.0
2018-May-29 14:00N 30°02' W 094°02'0 0.0
2018-May-29 13:30N 30°02' W 094°02'0 0.0
2018-May-29 13:00N 30°02' W 094°02'0 0.0
2018-May-29 12:30N 30°02' W 094°02'0 0.0
2018-May-29 12:00N 30°02' W 094°02'0 0.0
2018-May-29 11:31N 30°02' W 094°02'0 0.0
2018-May-29 11:00N 30°02' W 094°02'0 0.0
2018-May-29 10:30N 30°02' W 094°02'0 0.0
2018-May-29 10:00N 30°02' W 094°02'0 0.0
2018-May-29 09:30N 30°02' W 094°02'0 0.0
2018-May-29 09:00N 30°02' W 094°02'0 0.0
2018-May-29 08:30N 30°02' W 094°02'0 0.0
2018-May-29 08:00N 30°02' W 094°02'0 0.0
2018-May-29 07:30N 30°02' W 094°02'0 0.0
2018-May-29 07:00N 30°02' W 094°02'0 0.0
2018-May-29 06:30N 30°02' W 094°02'0 0.0
2018-May-29 06:00N 30°02' W 094°02'0 0.0
2018-May-29 05:30N 30°02' W 094°02'0 0.0
2018-May-29 05:00N 30°02' W 094°02'0 0.0
2018-May-29 04:30N 30°02' W 094°02'0 0.0
2018-May-29 04:00N 30°02' W 094°02'0 0.0
2018-May-29 03:30N 30°02' W 094°02'0 0.0
2018-May-29 03:00N 30°02' W 094°02'0 0.0
2018-May-29 02:30N 30°02' W 094°02'0 0.0
2018-May-29 02:00N 30°02' W 094°02'0 0.0
2018-May-29 01:30N 30°02' W 094°02'0 0.0
2018-May-29 01:00N 30°02' W 094°02'0 0.0
2018-May-29 00:30N 30°02' W 094°02'0 0.0
2018-May-29 00:00N 30°02' W 094°02'0 0.0
2018-May-28 23:30N 30°02' W 094°02'0 0.0
2018-May-28 23:00N 30°02' W 094°02'0 0.0
2018-May-28 22:30N 30°02' W 094°02'0 0.0
2018-May-28 22:00N 30°02' W 094°02'0 0.0
2018-May-28 21:30N 30°02' W 094°02'0 0.0
2018-May-28 21:00N 30°02' W 094°02'0 0.0
2018-May-28 20:30N 30°02' W 094°02'0 0.0
2018-May-28 20:00N 30°02' W 094°02'0 0.0
2018-May-28 19:30N 30°02' W 094°02'0 0.0
2018-May-28 19:01N 30°02' W 094°02'0 0.0
2018-May-28 18:30N 30°02' W 094°02'0 0.0
2018-May-28 18:00N 30°02' W 094°02'0 0.0
2018-May-28 17:30N 30°02' W 094°02'0 0.0
2018-May-28 16:58N 30°02' W 094°02'0 0.0
2018-May-28 16:30N 30°02' W 094°02'0 0.0
2018-May-28 16:00N 30°02' W 094°02'0 0.0
2018-May-28 15:30N 30°02' W 094°02'0 0.0
2018-May-28 15:00N 30°02' W 094°02'0 0.0
2018-May-28 14:30N 30°02' W 094°02'0 0.0
2018-May-28 14:00N 30°02' W 094°02'0 0.0
2018-May-28 13:30N 30°02' W 094°02'0 0.0
2018-May-28 13:00N 30°02' W 094°02'0 0.0
2018-May-28 12:30N 30°02' W 094°02'0 0.0
2018-May-28 12:00N 30°02' W 094°02'0 0.0
2018-May-28 11:30N 30°02' W 094°02'0 0.0
2018-May-28 11:00N 30°02' W 094°02'0 0.0
2018-May-28 10:30N 30°02' W 094°02'0 0.0
2018-May-28 10:00N 30°02' W 094°02'0 0.0
2018-May-28 09:30N 30°02' W 094°02'0 0.0
2018-May-28 09:00N 30°02' W 094°02'0 0.0
2018-May-28 08:30N 30°02' W 094°02'0 0.0
2018-May-28 08:00N 30°02' W 094°02'0 0.0
2018-May-28 07:30N 30°02' W 094°02'0 0.0
2018-May-28 07:00N 30°02' W 094°02'0 0.0
2018-May-28 06:30N 30°02' W 094°02'0 0.0
2018-May-28 06:00N 30°02' W 094°02'0 0.0
2018-May-28 05:30N 30°02' W 094°02'0 0.0
2018-May-28 05:00N 30°02' W 094°02'0 0.0
2018-May-28 04:30N 30°02' W 094°02'0 0.0
2018-May-28 04:00N 30°02' W 094°02'0 0.0
2018-May-28 03:30N 30°02' W 094°02'0 0.0
2018-May-28 03:00N 30°02' W 094°02'0 0.0
2018-May-28 02:30N 30°02' W 094°02'0 0.0
2018-May-28 02:00N 30°02' W 094°02'0 0.0
2018-May-28 01:30N 30°02' W 094°02'0 0.0
2018-May-28 01:00N 30°02' W 094°02'0 0.0
2018-May-28 00:30N 30°02' W 094°02'0 0.0
2018-May-28 00:00N 30°02' W 094°02'0 0.0
2018-May-27 23:30N 30°02' W 094°02'0 0.0
2018-May-27 23:00N 30°02' W 094°02'0 0.0
2018-May-27 22:30N 30°02' W 094°02'0 0.0
2018-May-27 22:00N 30°02' W 094°02'0 0.0
2018-May-27 21:30N 30°02' W 094°02'0 0.0
2018-May-27 21:00N 30°02' W 094°02'0 0.0
2018-May-27 20:30N 30°02' W 094°02'0 0.0
2018-May-27 20:00N 30°02' W 094°02'0 0.0
2018-May-27 19:30N 30°02' W 094°02'0 0.0
2018-May-27 19:00N 30°02' W 094°02'0 0.0
2018-May-27 18:30N 30°02' W 094°02'0 0.0
2018-May-27 18:00N 30°02' W 094°02'0 0.0
2018-May-27 17:30N 30°02' W 094°02'0 0.0
2018-May-27 17:00N 30°02' W 094°02'0 0.0
2018-May-27 16:30N 30°02' W 094°02'0 0.0
2018-May-27 16:00N 30°02' W 094°02'0 0.0
2018-May-27 15:30N 30°02' W 094°02'0 0.0
2018-May-27 15:00N 30°02' W 094°02'0 0.0
2018-May-27 14:30N 30°02' W 094°02'0 0.0
2018-May-27 14:00N 30°02' W 094°02'0 0.0
2018-May-27 13:30N 30°02' W 094°02'0 0.0
2018-May-27 13:00N 30°02' W 094°02'0 0.0
2018-May-27 12:30N 30°02' W 094°02'0 0.0
2018-May-27 12:00N 30°02' W 094°02'0 0.0
2018-May-27 11:30N 30°02' W 094°02'0 0.0
2018-May-27 11:00N 30°02' W 094°02'0 0.0
2018-May-27 10:30N 30°02' W 094°02'0 0.0
2018-May-27 10:00N 30°02' W 094°02'0 0.0
2018-May-27 09:30N 30°02' W 094°02'0 0.0
2018-May-27 09:00N 30°02' W 094°02'0 0.0
2018-May-27 08:30N 30°02' W 094°02'0 0.0
2018-May-27 08:00N 30°02' W 094°02'0 0.0
2018-May-27 07:30N 30°02' W 094°02'0 0.0
2018-May-27 07:00N 30°02' W 094°02'0 0.0
2018-May-27 06:30N 30°02' W 094°02'0 0.0
2018-May-27 06:00N 30°02' W 094°02'0 0.0
2018-May-27 05:30N 30°02' W 094°02'0 0.0
2018-May-27 05:00N 30°02' W 094°02'0 0.0
2018-May-27 04:30N 30°02' W 094°02'0 0.0
2018-May-27 04:00N 30°02' W 094°02'0 0.0
2018-May-27 03:30N 30°02' W 094°02'0 0.0
2018-May-27 03:00N 30°02' W 094°02'0 0.0
2018-May-27 02:30N 30°02' W 094°02'0 0.0
2018-May-27 02:00N 30°02' W 094°02'0 0.0
2018-May-27 01:30N 30°02' W 094°02'0 0.0
2018-May-27 01:00N 30°02' W 094°02'0 0.0
2018-May-27 00:30N 30°02' W 094°02'0 0.0
2018-May-27 00:00N 30°02' W 094°02'0 0.0
2018-May-26 23:30N 30°02' W 094°02'0 0.0
2018-May-26 23:00N 30°02' W 094°02'0 0.0
2018-May-26 22:30N 30°02' W 094°02'0 0.0
2018-May-26 22:00N 30°02' W 094°02'0 0.0
2018-May-26 21:30N 30°02' W 094°02'0 0.0
2018-May-26 21:00N 30°02' W 094°02'0 0.0
2018-May-26 20:29N 30°02' W 094°02'0 0.0
2018-May-26 20:00N 30°02' W 094°02'0 0.0
2018-May-26 19:30N 30°02' W 094°02'0 0.0
2018-May-26 19:00N 30°02' W 094°02'0 0.0
2018-May-26 18:30N 30°02' W 094°02'0 0.0
2018-May-26 18:00N 30°02' W 094°02'0 0.0
2018-May-26 17:30N 30°02' W 094°02'0 0.0
2018-May-26 17:00N 30°02' W 094°02'0 0.0
2018-May-26 16:30N 30°02' W 094°02'0 0.0
2018-May-26 16:00N 30°02' W 094°02'0 0.0
2018-May-26 15:30N 30°02' W 094°02'0 0.0
2018-May-26 15:00N 30°02' W 094°02'0 0.8
2018-May-26 14:30N 30°02' W 094°03'0 0.5
2018-May-26 14:00N 30°02' W 094°03'1 1.3
2018-May-26 13:30N 30°02' W 094°02'0 0.0
2018-May-26 13:00N 30°02' W 094°02'0 0.0
2018-May-26 12:30N 30°02' W 094°02'0 0.0
2018-May-26 12:00N 30°02' W 094°02'0 0.0
2018-May-26 11:30N 30°02' W 094°02'0 0.0
2018-May-26 11:00N 30°02' W 094°02'0 0.0
2018-May-26 10:30N 30°02' W 094°02'0 0.0
2018-May-26 10:00N 30°02' W 094°02'0 0.0
2018-May-26 09:30N 30°02' W 094°02'0 0.0
2018-May-26 09:00N 30°02' W 094°02'0 0.0
2018-May-26 08:30N 30°02' W 094°02'0 0.0
2018-May-26 08:00N 30°02' W 094°02'0 0.0
2018-May-26 07:30N 30°02' W 094°02'0 0.0
2018-May-26 07:00N 30°02' W 094°02'0 0.0
2018-May-26 06:30N 30°02' W 094°02'0 0.0
2018-May-26 05:30N 30°02' W 094°02'0 0.0
2018-May-26 05:00N 30°02' W 094°02'0 0.0
2018-May-26 04:30N 30°02' W 094°02'0 0.0
2018-May-26 04:00N 30°02' W 094°02'0 0.0
2018-May-26 03:30N 30°02' W 094°02'0 0.0
2018-May-26 03:00N 30°02' W 094°02'0 0.0
2018-May-26 02:30N 30°02' W 094°02'0 0.0
2018-May-26 02:00N 30°02' W 094°02'0 0.0
2018-May-26 01:30N 30°02' W 094°02'0 0.0
2018-May-26 01:00N 30°02' W 094°02'0 0.0
2018-May-26 00:30N 30°02' W 094°02'0 0.0
2018-May-26 00:00N 30°02' W 094°02'0 0.0
2018-May-25 23:30N 30°02' W 094°02'0 0.0
2018-May-25 23:00N 30°02' W 094°02'0 0.0
2018-May-25 22:30N 30°02' W 094°02'0 0.0
2018-May-25 22:00N 30°02' W 094°02'0 0.0
2018-May-25 21:30N 30°02' W 094°02'0 0.0
2018-May-25 21:00N 30°02' W 094°02'0 0.0
2018-May-25 20:30N 30°02' W 094°02'0 0.0
2018-May-25 20:00N 30°02' W 094°02'0 0.0
2018-May-25 19:30N 30°02' W 094°02'0 0.0
2018-May-25 19:00N 30°02' W 094°02'0 0.0
2018-May-25 18:30N 30°02' W 094°02'0 0.0
2018-May-25 18:00N 30°02' W 094°02'1 1.3
2018-May-25 17:30N 30°02' W 094°03'0 0.0
2018-May-25 17:00N 30°02' W 094°03'1 1.3
2018-May-25 16:30N 30°02' W 094°02'0 0.0
2018-May-25 16:00N 30°02' W 094°02'0 0.0
2018-May-25 15:30N 30°02' W 094°02'0 0.0
2018-May-25 15:00N 30°02' W 094°02'0 0.0
2018-May-25 14:30N 30°02' W 094°02'0 0.0
2018-May-25 14:00N 30°02' W 094°02'0 0.0
2018-May-25 13:30N 30°02' W 094°02'0 0.0
2018-May-25 13:00N 30°02' W 094°02'0 0.0
2018-May-25 12:30N 30°02' W 094°02'0 0.0
2018-May-25 12:00N 30°02' W 094°02'0 0.0
2018-May-25 11:30N 30°02' W 094°02'0 0.0
2018-May-25 11:00N 30°02' W 094°02'0 0.0
2018-May-25 10:30N 30°02' W 094°02'0 0.0
2018-May-25 10:00N 30°02' W 094°02'0 0.0
2018-May-25 09:30N 30°02' W 094°02'0 0.0
2018-May-25 09:00N 30°02' W 094°02'0 0.0
2018-May-25 08:30N 30°02' W 094°02'0 0.0
2018-May-25 08:00N 30°02' W 094°02'0 0.0
2018-May-25 07:30N 30°02' W 094°02'0 0.0
2018-May-25 07:00N 30°02' W 094°02'0 0.0
2018-May-25 06:30N 30°02' W 094°02'0 0.0
2018-May-25 06:00N 30°02' W 094°02'0 0.0
2018-May-25 05:30N 30°02' W 094°02'0 0.0
2018-May-25 05:00N 30°02' W 094°02'0 0.0
2018-May-25 04:30N 30°02' W 094°02'0 0.0
2018-May-25 04:00N 30°02' W 094°02'0 0.0
2018-May-25 03:30N 30°02' W 094°02'0 0.0
2018-May-25 03:00N 30°02' W 094°02'0 0.0
2018-May-25 02:30N 30°02' W 094°02'0 0.0
2018-May-25 02:00N 30°02' W 094°02'1 3.0
2018-May-25 01:30N 30°01' W 094°01'3 6.0
2018-May-25 01:00N 30°01' W 093°58'3 5.2
2018-May-25 00:30N 29°59' W 093°55'3 5.7
2018-May-25 00:00N 29°59' W 093°52'1 1.6
2018-May-24 23:30N 29°58' W 093°52'0 0.0
2018-May-24 23:00N 29°58' W 093°52'0 0.0
2018-May-24 22:30N 29°58' W 093°52'0 0.0
2018-May-24 22:00N 29°58' W 093°52'1 2.0
2018-May-24 21:30N 29°57' W 093°52'0 0.5
2018-May-24 21:00N 29°57' W 093°52'3 5.2
2018-May-24 20:30N 29°55' W 093°53'2 4.6
2018-May-24 20:00N 29°53' W 093°55'3 7.0
2018-May-24 19:30N 29°50' W 093°57'3 6.4
2018-May-24 19:00N 29°48' W 094°00'3 6.3
2018-May-24 18:30N 29°46' W 094°03'3 5.7
2018-May-24 18:00N 29°44' W 094°05'3 6.3
2018-May-24 17:30N 29°42' W 094°08'3 6.2
2018-May-24 17:00N 29°41' W 094°11'3 6.5
2018-May-24 16:30N 29°40' W 094°15'3 6.6
2018-May-24 16:00N 29°38' W 094°18'5 6.7
2018-May-24 15:19N 29°36' W 094°23'8 5.7
2018-May-24 13:54N 29°31' W 094°30'24 5.0
2018-May-24 09:00N 29°17' W 094°53'3 6.1
2018-May-24 08:30N 29°17' W 094°57'2 3.8
2018-May-24 08:00N 29°17' W 094°59'0 0.0
2018-May-24 07:30N 29°17' W 094°59'2 3.0
2018-May-24 07:00N 29°15' W 094°60'  
Track history (hours):
 
Tides and Currents Weather Stations Pressure Air Temp Water Temp Dewpoint Dewpoint Depression Visibility Wind Speed Wind Dir Waves Ship Positions

Paddy

Owner: Enterprise Marine Services, LLC, San Antonio, TX. More information available from US FCC via Universal Licensing System and Coast Guard Vessel Documentation Center.

Last reported at 2018-Jun-03 06:50 UTC. Time now 2018-Jun-21 17:30 UTC.
Position N 27°52' W 097°03'.
Warning: this ship's position is 18 days out of date.

Length 21 m; draft 2.7 m.

Type: . MMSI: 367003770.

Date/timePositionNaut miles runAvg speedWind from/ knotsBaromVisibWave heightAir tempDewpointWater temp
2018-Jun-03 06:50N 27°52' W 097°03'0 0.0
2018-Jun-03 06:24N 27°52' W 097°03'0 0.0
2018-Jun-03 03:33N 27°52' W 097°03'0 0.0
2018-Jun-03 03:27N 27°52' W 097°03'0 0.0
2018-Jun-03 02:58N 27°52' W 097°03'0 0.0
2018-Jun-03 02:30N 27°52' W 097°03'0 0.0
2018-Jun-03 02:00N 27°52' W 097°03'0 0.0
2018-Jun-03 01:30N 27°52' W 097°03'141 3.2
2018-Jun-01 04:46N 29°17' W 094°54'1 5.0
2018-Jun-01 04:30N 29°18' W 094°53'3 5.1
2018-Jun-01 03:59N 29°20' W 094°51'3 1.0
2018-Jun-01 01:01N 29°23' W 094°52'0 0.7
2018-Jun-01 00:38N 29°23' W 094°52'0 3.7
2018-Jun-01 00:30N 29°23' W 094°51'3 5.8
2018-Jun-01 00:00N 29°22' W 094°48'24 5.7
2018-May-31 19:47N 29°34' W 094°25'2 4.9
2018-May-31 19:27N 29°36' W 094°24'2 3.4
2018-May-31 18:54N 29°36' W 094°22'2 5.4
2018-May-31 18:30N 29°37' W 094°20'3 5.4
2018-May-31 18:00N 29°38' W 094°18'3 5.3
2018-May-31 17:30N 29°40' W 094°15'3 5.4
2018-May-31 17:00N 29°41' W 094°12'3 5.3
2018-May-31 16:30N 29°42' W 094°09'3 5.4
2018-May-31 16:00N 29°43' W 094°07'3 5.6
2018-May-31 15:30N 29°45' W 094°04'3 5.7
2018-May-31 15:00N 29°47' W 094°02'3 5.7
2018-May-31 14:30N 29°49' W 093°59'3 5.1
2018-May-31 14:00N 29°50' W 093°57'3 5.2
2018-May-31 13:30N 29°53' W 093°56'3 5.4
2018-May-31 13:00N 29°55' W 093°53'3 5.1
2018-May-31 12:30N 29°57' W 093°52'2 4.1
2018-May-31 12:00N 29°59' W 093°52'1 1.5
2018-May-31 11:30N 29°59' W 093°53'0 0.5
2018-May-31 11:00N 29°59' W 093°53'0 0.0
2018-May-31 10:30N 29°59' W 093°53'0 0.0
2018-May-31 10:00N 29°59' W 093°53'0 0.0
2018-May-31 09:30N 29°59' W 093°53'1 1.3
2018-May-31 09:00N 29°59' W 093°54'2 4.6
2018-May-31 08:30N 29°58' W 093°52'0 0.0
2018-May-31 07:59N 29°58' W 093°52'0 0.0
2018-May-31 07:29N 29°58' W 093°52'0 0.0
2018-May-31 06:59N 29°58' W 093°52'0 0.0
2018-May-31 06:29N 29°58' W 093°52'0 0.0
2018-May-31 05:56N 29°58' W 093°52'0 0.0
2018-May-31 05:29N 29°58' W 093°52'0 0.0
2018-May-31 04:59N 29°58' W 093°52'0 0.0
2018-May-31 04:29N 29°58' W 093°52'0 0.0
2018-May-31 03:58N 29°58' W 093°52'0 0.0
2018-May-31 03:28N 29°58' W 093°52'0 0.0
2018-May-31 02:58N 29°58' W 093°52'0 0.0
2018-May-31 02:28N 29°58' W 093°52'0 0.0
2018-May-31 02:00N 29°58' W 093°52'0 0.0
2018-May-31 01:31N 29°58' W 093°52'0 0.0
2018-May-31 01:00N 29°58' W 093°52'0 0.0
2018-May-31 00:30N 29°58' W 093°52'0 0.0
2018-May-31 00:00N 29°58' W 093°52'0 0.0
2018-May-30 23:30N 29°58' W 093°52'0 0.0
2018-May-30 23:00N 29°58' W 093°52'0 0.0
2018-May-30 22:30N 29°58' W 093°52'0 0.0
2018-May-30 22:00N 29°58' W 093°52'0 0.0
2018-May-30 21:30N 29°58' W 093°52'0 0.0
2018-May-30 20:55N 29°58' W 093°52'0 0.0
2018-May-30 20:25N 29°58' W 093°52'0 0.0
2018-May-30 19:58N 29°58' W 093°52'0 0.0
2018-May-30 19:28N 29°58' W 093°52'0 0.0
2018-May-30 18:58N 29°58' W 093°52'0 0.0
2018-May-30 18:28N 29°58' W 093°52'0 0.0
2018-May-30 17:55N 29°58' W 093°52'0 0.0
2018-May-30 17:29N 29°58' W 093°52'0 0.0
2018-May-30 16:59N 29°58' W 093°52'0 0.0
2018-May-30 16:30N 29°58' W 093°52'0 0.5
2018-May-30 16:00N 29°58' W 093°51'3 5.7
2018-May-30 15:30N 29°59' W 093°55'0 0.9
2018-May-30 14:58N 29°60' W 093°55'0 0.0
2018-May-30 14:28N 29°60' W 093°55'0 0.0
2018-May-30 13:58N 29°60' W 093°55'0 0.0
2018-May-30 13:28N 29°60' W 093°55'0 0.0
2018-May-30 12:58N 29°60' W 093°55'0 0.0
2018-May-30 12:28N 29°60' W 093°55'0 0.0
2018-May-30 11:58N 29°60' W 093°55'0 0.0
2018-May-30 11:28N 29°60' W 093°55'0 0.0
2018-May-30 10:58N 29°60' W 093°55'0 0.0
2018-May-30 10:28N 29°60' W 093°55'0 0.0
2018-May-30 09:58N 29°60' W 093°55'0 0.0
2018-May-30 09:28N 29°60' W 093°55'0 0.0
2018-May-30 08:58N 29°60' W 093°55'0 0.0
2018-May-30 08:28N 29°60' W 093°55'0 0.0
2018-May-30 07:58N 29°60' W 093°55'0 0.0
2018-May-30 07:28N 29°60' W 093°55'0 0.0
2018-May-30 06:55N 29°60' W 093°55'0 0.0
2018-May-30 06:28N 29°60' W 093°55'0 0.0
2018-May-30 05:58N 29°60' W 093°55'0 0.0
2018-May-30 05:28N 29°60' W 093°55'0 0.0
2018-May-30 04:58N 29°60' W 093°55'0 0.0
2018-May-30 04:28N 29°60' W 093°55'1 2.0
2018-May-30 04:00N 29°59' W 093°54'2 5.0
2018-May-30 03:30N 29°58' W 093°51'0 0.3
2018-May-30 03:00N 29°58' W 093°52'0 0.0
2018-May-30 02:30N 29°58' W 093°52'0 0.0
2018-May-30 02:00N 29°58' W 093°52'0 0.0
2018-May-30 01:30N 29°58' W 093°52'0 0.0
2018-May-30 01:00N 29°58' W 093°52'0 0.0
2018-May-30 00:30N 29°58' W 093°52'0 0.0
2018-May-30 00:00N 29°58' W 093°52'3 5.8
2018-May-29 23:31N 29°59' W 093°55'1 1.0
2018-May-29 23:01N 29°59' W 093°54'2 4.5
2018-May-29 22:29N 29°58' W 093°52'0 0.0
2018-May-29 21:58N 29°58' W 093°52'0 0.0
2018-May-29 21:30N 29°58' W 093°52'2 3.8
2018-May-29 21:00N 29°59' W 093°53'1 2.8
2018-May-29 20:30N 29°60' W 093°55'0 0.0
2018-May-29 20:00N 29°60' W 093°55'0 0.0
2018-May-29 19:30N 29°60' W 093°55'0 0.1
2018-May-29 19:01N 29°60' W 093°55'1 1.8
2018-May-29 18:30N 29°59' W 093°56'2 4.4
2018-May-29 18:00N 30°01' W 093°58'3 5.2
2018-May-29 17:30N 30°01' W 094°01'2 3.3
2018-May-29 17:00N 30°02' W 094°02'0 0.0
2018-May-29 16:30N 30°02' W 094°02'0 0.0
2018-May-29 16:00N 30°02' W 094°02'0 0.0
2018-May-29 15:30N 30°02' W 094°02'0 0.0
2018-May-29 15:00N 30°02' W 094°02'0 0.0
2018-May-29 14:30N 30°02' W 094°02'0 0.0
2018-May-29 14:00N 30°02' W 094°02'0 0.0
2018-May-29 13:30N 30°02' W 094°02'0 0.0
2018-May-29 13:00N 30°02' W 094°02'0 0.0
2018-May-29 12:30N 30°02' W 094°02'0 0.0
2018-May-29 12:00N 30°02' W 094°02'0 0.0
2018-May-29 11:31N 30°02' W 094°02'0 0.0
2018-May-29 11:00N 30°02' W 094°02'0 0.0
2018-May-29 10:30N 30°02' W 094°02'0 0.0
2018-May-29 10:00N 30°02' W 094°02'0 0.0
2018-May-29 09:30N 30°02' W 094°02'0 0.0
2018-May-29 09:00N 30°02' W 094°02'0 0.0
2018-May-29 08:30N 30°02' W 094°02'0 0.0
2018-May-29 08:00N 30°02' W 094°02'0 0.0
2018-May-29 07:30N 30°02' W 094°02'0 0.0
2018-May-29 07:00N 30°02' W 094°02'0 0.0
2018-May-29 06:30N 30°02' W 094°02'0 0.0
2018-May-29 06:00N 30°02' W 094°02'0 0.0
2018-May-29 05:30N 30°02' W 094°02'0 0.0
2018-May-29 05:00N 30°02' W 094°02'0 0.0
2018-May-29 04:30N 30°02' W 094°02'0 0.0
2018-May-29 04:00N 30°02' W 094°02'0 0.0
2018-May-29 03:30N 30°02' W 094°02'0 0.0
2018-May-29 03:00N 30°02' W 094°02'0 0.0
2018-May-29 02:30N 30°02' W 094°02'0 0.0
2018-May-29 02:00N 30°02' W 094°02'0 0.0
2018-May-29 01:30N 30°02' W 094°02'0 0.0
2018-May-29 01:00N 30°02' W 094°02'0 0.0
2018-May-29 00:30N 30°02' W 094°02'0 0.0
2018-May-29 00:00N 30°02' W 094°02'0 0.0
2018-May-28 23:30N 30°02' W 094°02'0 0.0
2018-May-28 23:00N 30°02' W 094°02'0 0.0
2018-May-28 22:30N 30°02' W 094°02'0 0.0
2018-May-28 22:00N 30°02' W 094°02'0 0.0
2018-May-28 21:30N 30°02' W 094°02'0 0.0
2018-May-28 21:00N 30°02' W 094°02'0 0.0
2018-May-28 20:30N 30°02' W 094°02'0 0.0
2018-May-28 20:00N 30°02' W 094°02'0 0.0
2018-May-28 19:30N 30°02' W 094°02'0 0.0
2018-May-28 19:01N 30°02' W 094°02'0 0.0
2018-May-28 18:30N 30°02' W 094°02'0 0.0
2018-May-28 18:00N 30°02' W 094°02'0 0.0
2018-May-28 17:30N 30°02' W 094°02'0 0.0
2018-May-28 16:58N 30°02' W 094°02'0 0.0
2018-May-28 16:30N 30°02' W 094°02'0 0.0
2018-May-28 16:00N 30°02' W 094°02'0 0.0
2018-May-28 15:30N 30°02' W 094°02'0 0.0
2018-May-28 15:00N 30°02' W 094°02'0 0.0
2018-May-28 14:30N 30°02' W 094°02'0 0.0
2018-May-28 14:00N 30°02' W 094°02'0 0.0
2018-May-28 13:30N 30°02' W 094°02'0 0.0
2018-May-28 13:00N 30°02' W 094°02'0 0.0
2018-May-28 12:30N 30°02' W 094°02'0 0.0
2018-May-28 12:00N 30°02' W 094°02'0 0.0
2018-May-28 11:30N 30°02' W 094°02'0 0.0
2018-May-28 11:00N 30°02' W 094°02'0 0.0
2018-May-28 10:30N 30°02' W 094°02'0 0.0
2018-May-28 10:00N 30°02' W 094°02'0 0.0
2018-May-28 09:30N 30°02' W 094°02'0 0.0
2018-May-28 09:00N 30°02' W 094°02'0 0.0
2018-May-28 08:30N 30°02' W 094°02'0 0.0
2018-May-28 08:00N 30°02' W 094°02'0 0.0
2018-May-28 07:30N 30°02' W 094°02'0 0.0
2018-May-28 07:00N 30°02' W 094°02'0 0.0
2018-May-28 06:30N 30°02' W 094°02'0 0.0
2018-May-28 06:00N 30°02' W 094°02'0 0.0
2018-May-28 05:30N 30°02' W 094°02'0 0.0
2018-May-28 05:00N 30°02' W 094°02'0 0.0
2018-May-28 04:30N 30°02' W 094°02'0 0.0
2018-May-28 04:00N 30°02' W 094°02'0 0.0
2018-May-28 03:30N 30°02' W 094°02'0 0.0
2018-May-28 03:00N 30°02' W 094°02'0 0.0
2018-May-28 02:30N 30°02' W 094°02'0 0.0
2018-May-28 02:00N 30°02' W 094°02'0 0.0
2018-May-28 01:30N 30°02' W 094°02'0 0.0
2018-May-28 01:00N 30°02' W 094°02'0 0.0
2018-May-28 00:30N 30°02' W 094°02'0 0.0
2018-May-28 00:00N 30°02' W 094°02'0 0.0
2018-May-27 23:30N 30°02' W 094°02'0 0.0
2018-May-27 23:00N 30°02' W 094°02'0 0.0
2018-May-27 22:30N 30°02' W 094°02'0 0.0
2018-May-27 22:00N 30°02' W 094°02'0 0.0
2018-May-27 21:30N 30°02' W 094°02'0 0.0
2018-May-27 21:00N 30°02' W 094°02'0 0.0
2018-May-27 20:30N 30°02' W 094°02'0 0.0
2018-May-27 20:00N 30°02' W 094°02'0 0.0
2018-May-27 19:30N 30°02' W 094°02'0 0.0
2018-May-27 19:00N 30°02' W 094°02'0 0.0
2018-May-27 18:30N 30°02' W 094°02'0 0.0
2018-May-27 18:00N 30°02' W 094°02'0 0.0
2018-May-27 17:30N 30°02' W 094°02'0 0.0
2018-May-27 17:00N 30°02' W 094°02'0 0.0
2018-May-27 16:30N 30°02' W 094°02'0 0.0
2018-May-27 16:00N 30°02' W 094°02'0 0.0
2018-May-27 15:30N 30°02' W 094°02'0 0.0
2018-May-27 15:00N 30°02' W 094°02'0 0.0
2018-May-27 14:30N 30°02' W 094°02'0 0.0
2018-May-27 14:00N 30°02' W 094°02'0 0.0
2018-May-27 13:30N 30°02' W 094°02'0 0.0
2018-May-27 13:00N 30°02' W 094°02'0 0.0
2018-May-27 12:30N 30°02' W 094°02'0 0.0
2018-May-27 12:00N 30°02' W 094°02'0 0.0
2018-May-27 11:30N 30°02' W 094°02'0 0.0
2018-May-27 11:00N 30°02' W 094°02'0 0.0
2018-May-27 10:30N 30°02' W 094°02'0 0.0
2018-May-27 10:00N 30°02' W 094°02'0 0.0
2018-May-27 09:30N 30°02' W 094°02'0 0.0
2018-May-27 09:00N 30°02' W 094°02'0 0.0
2018-May-27 08:30N 30°02' W 094°02'0 0.0
2018-May-27 08:00N 30°02' W 094°02'0 0.0
2018-May-27 07:30N 30°02' W 094°02'0 0.0
2018-May-27 07:00N 30°02' W 094°02'0 0.0
2018-May-27 06:30N 30°02' W 094°02'0 0.0
2018-May-27 06:00N 30°02' W 094°02'0 0.0
2018-May-27 05:30N 30°02' W 094°02'0 0.0
2018-May-27 05:00N 30°02' W 094°02'0 0.0
2018-May-27 04:30N 30°02' W 094°02'0 0.0
2018-May-27 04:00N 30°02' W 094°02'0 0.0
2018-May-27 03:30N 30°02' W 094°02'0 0.0
2018-May-27 03:00N 30°02' W 094°02'0 0.0
2018-May-27 02:30N 30°02' W 094°02'0 0.0
2018-May-27 02:00N 30°02' W 094°02'0 0.0
2018-May-27 01:30N 30°02' W 094°02'0 0.0
2018-May-27 01:00N 30°02' W 094°02'0 0.0
2018-May-27 00:30N 30°02' W 094°02'0 0.0
2018-May-27 00:00N 30°02' W 094°02'0 0.0
2018-May-26 23:30N 30°02' W 094°02'0 0.0
2018-May-26 23:00N 30°02' W 094°02'0 0.0
2018-May-26 22:30N 30°02' W 094°02'0 0.0
2018-May-26 22:00N 30°02' W 094°02'0 0.0
2018-May-26 21:30N 30°02' W 094°02'0 0.0
2018-May-26 21:00N 30°02' W 094°02'0 0.0
2018-May-26 20:29N 30°02' W 094°02'0 0.0
2018-May-26 20:00N 30°02' W 094°02'0 0.0
2018-May-26 19:30N 30°02' W 094°02'0 0.0
2018-May-26 19:00N 30°02' W 094°02'0 0.0
2018-May-26 18:30N 30°02' W 094°02'0 0.0
2018-May-26 18:00N 30°02' W 094°02'0 0.0
2018-May-26 17:30N 30°02' W 094°02'0 0.0
2018-May-26 17:00N 30°02' W 094°02'0 0.0
2018-May-26 16:30N 30°02' W 094°02'0 0.0
2018-May-26 16:00N 30°02' W 094°02'0 0.0
2018-May-26 15:30N 30°02' W 094°02'0 0.0
2018-May-26 15:00N 30°02' W 094°02'0 0.8
2018-May-26 14:30N 30°02' W 094°03'0 0.5
2018-May-26 14:00N 30°02' W 094°03'1 1.3
2018-May-26 13:30N 30°02' W 094°02'0 0.0
2018-May-26 13:00N 30°02' W 094°02'0 0.0
2018-May-26 12:30N 30°02' W 094°02'0 0.0
2018-May-26 12:00N 30°02' W 094°02'0 0.0
2018-May-26 11:30N 30°02' W 094°02'0 0.0
2018-May-26 11:00N 30°02' W 094°02'0 0.0
2018-May-26 10:30N 30°02' W 094°02'0 0.0
2018-May-26 10:00N 30°02' W 094°02'0 0.0
2018-May-26 09:30N 30°02' W 094°02'0 0.0
2018-May-26 09:00N 30°02' W 094°02'0 0.0
2018-May-26 08:30N 30°02' W 094°02'0 0.0
2018-May-26 08:00N 30°02' W 094°02'0 0.0
2018-May-26 07:30N 30°02' W 094°02'0 0.0
2018-May-26 07:00N 30°02' W 094°02'0 0.0
2018-May-26 06:30N 30°02' W 094°02'0 0.0
2018-May-26 05:30N 30°02' W 094°02'0 0.0
2018-May-26 05:00N 30°02' W 094°02'0 0.0
2018-May-26 04:30N 30°02' W 094°02'0 0.0
2018-May-26 04:00N 30°02' W 094°02'0 0.0
2018-May-26 03:30N 30°02' W 094°02'0 0.0
2018-May-26 03:00N 30°02' W 094°02'0 0.0
2018-May-26 02:30N 30°02' W 094°02'0 0.0
2018-May-26 02:00N 30°02' W 094°02'0 0.0
2018-May-26 01:30N 30°02' W 094°02'0 0.0
2018-May-26 01:00N 30°02' W 094°02'0 0.0
2018-May-26 00:30N 30°02' W 094°02'0 0.0
2018-May-26 00:00N 30°02' W 094°02'0 0.0
2018-May-25 23:30N 30°02' W 094°02'0 0.0
2018-May-25 23:00N 30°02' W 094°02'0 0.0
2018-May-25 22:30N 30°02' W 094°02'0 0.0
2018-May-25 22:00N 30°02' W 094°02'0 0.0
2018-May-25 21:30N 30°02' W 094°02'0 0.0
2018-May-25 21:00N 30°02' W 094°02'0 0.0
2018-May-25 20:30N 30°02' W 094°02'0 0.0
2018-May-25 20:00N 30°02' W 094°02'0 0.0
2018-May-25 19:30N 30°02' W 094°02'0 0.0
2018-May-25 19:00N 30°02' W 094°02'0 0.0
2018-May-25 18:30N 30°02' W 094°02'0 0.0
2018-May-25 18:00N 30°02' W 094°02'1 1.3
2018-May-25 17:30N 30°02' W 094°03'0 0.0
2018-May-25 17:00N 30°02' W 094°03'1 1.3
2018-May-25 16:30N 30°02' W 094°02'0 0.0
2018-May-25 16:00N 30°02' W 094°02'0 0.0
2018-May-25 15:30N 30°02' W 094°02'0 0.0
2018-May-25 15:00N 30°02' W 094°02'0 0.0
2018-May-25 14:30N 30°02' W 094°02'0 0.0
2018-May-25 14:00N 30°02' W 094°02'0 0.0
2018-May-25 13:30N 30°02' W 094°02'0 0.0
2018-May-25 13:00N 30°02' W 094°02'0 0.0
2018-May-25 12:30N 30°02' W 094°02'0 0.0
2018-May-25 12:00N 30°02' W 094°02'0 0.0
2018-May-25 11:30N 30°02' W 094°02'0 0.0
2018-May-25 11:00N 30°02' W 094°02'0 0.0
2018-May-25 10:30N 30°02' W 094°02'0 0.0
2018-May-25 10:00N 30°02' W 094°02'0 0.0
2018-May-25 09:30N 30°02' W 094°02'0 0.0
2018-May-25 09:00N 30°02' W 094°02'0 0.0
2018-May-25 08:30N 30°02' W 094°02'0 0.0
2018-May-25 08:00N 30°02' W 094°02'0 0.0
2018-May-25 07:30N 30°02' W 094°02'0 0.0
2018-May-25 07:00N 30°02' W 094°02'0 0.0
2018-May-25 06:30N 30°02' W 094°02'0 0.0
2018-May-25 06:00N 30°02' W 094°02'0 0.0
2018-May-25 05:30N 30°02' W 094°02'0 0.0
2018-May-25 05:00N 30°02' W 094°02'0 0.0
2018-May-25 04:30N 30°02' W 094°02'0 0.0
2018-May-25 04:00N 30°02' W 094°02'0 0.0
2018-May-25 03:30N 30°02' W 094°02'0 0.0
2018-May-25 03:00N 30°02' W 094°02'0 0.0
2018-May-25 02:30N 30°02' W 094°02'0 0.0
2018-May-25 02:00N 30°02' W 094°02'1 3.0
2018-May-25 01:30N 30°01' W 094°01'3 6.0
2018-May-25 01:00N 30°01' W 093°58'3 5.2
2018-May-25 00:30N 29°59' W 093°55'3 5.7
2018-May-25 00:00N 29°59' W 093°52'1 1.6
2018-May-24 23:30N 29°58' W 093°52'0 0.0
2018-May-24 23:00N 29°58' W 093°52'0 0.0
2018-May-24 22:30N 29°58' W 093°52'0 0.0
2018-May-24 22:00N 29°58' W 093°52'1 2.0
2018-May-24 21:30N 29°57' W 093°52'0 0.5
2018-May-24 21:00N 29°57' W 093°52'3 5.2
2018-May-24 20:30N 29°55' W 093°53'2 4.6
2018-May-24 20:00N 29°53' W 093°55'3 7.0
2018-May-24 19:30N 29°50' W 093°57'3 6.4
2018-May-24 19:00N 29°48' W 094°00'3 6.3
2018-May-24 18:30N 29°46' W 094°03'3 5.7
2018-May-24 18:00N 29°44' W 094°05'3 6.3
2018-May-24 17:30N 29°42' W 094°08'3 6.2
2018-May-24 17:00N 29°41' W 094°11'3 6.5
2018-May-24 16:30N 29°40' W 094°15'3 6.6
2018-May-24 16:00N 29°38' W 094°18'5 6.7
2018-May-24 15:19N 29°36' W 094°23'8 5.7
2018-May-24 13:54N 29°31' W 094°30'24 5.0
2018-May-24 09:00N 29°17' W 094°53'3 6.1
2018-May-24 08:30N 29°17' W 094°57'2 3.8
2018-May-24 08:00N 29°17' W 094°59'0 0.0
2018-May-24 07:30N 29°17' W 094°59'2 3.0
2018-May-24 07:00N 29°15' W 094°60'  

Dump ship's entire track history